Time;durP1;ratioP1;P1;durP2;ratioP2;P2;SDS_P1;SDS_P2;PMS_P1;PMS_P2;Temp;Humidity;BMP_temperature;BMP_pressure;BME280_temperature;BME280_humidity;BME280_pressure;Samples;Min_cycle;Max_cycle;Signal;HPM_P1;HPM_P2
2022/12/20 04:02:18;;;;;;;4.88;3.10;;;7.20;47.10;;;;;;5088282;23;45821;-59
2022/12/20 04:04:43;;;;;;;5.60;3.40;;;7.20;47.10;;;;;;4954156;28;45554;-62
2022/12/20 04:07:09;;;;;;;4.55;2.90;;;7.20;47.10;;;;;;4927696;28;45325;-63
2022/12/20 04:09:34;;;;;;;4.78;3.10;;;7.20;47.20;;;;;;4950003;28;46173;-62
2022/12/20 04:12:00;;;;;;;4.85;3.10;;;7.20;47.10;;;;;;4954948;28;45375;-59
2022/12/20 04:14:26;;;;;;;4.93;3.22;;;7.20;47.10;;;;;;4958024;28;44952;-58
2022/12/20 04:16:51;;;;;;;4.20;2.75;;;7.20;47.10;;;;;;4957455;28;45405;-59
2022/12/20 04:19:17;;;;;;;5.20;2.97;;;7.20;47.10;;;;;;4955192;28;45833;-55
2022/12/20 04:21:42;;;;;;;3.97;2.65;;;7.20;47.10;;;;;;4955008;28;45468;-60
2022/12/20 04:24:08;;;;;;;3.45;2.60;;;7.20;47.10;;;;;;4956000;28;45217;-57
2022/12/20 04:26:33;;;;;;;5.40;3.17;;;7.20;47.10;;;;;;4954321;28;45611;-59
2022/12/20 04:28:59;;;;;;;4.68;2.95;;;7.20;47.10;;;;;;4956939;28;45837;-61
2022/12/20 04:31:25;;;;;;;5.47;3.10;;;7.20;47.10;;;;;;4951277;28;44690;-56
2022/12/20 04:33:50;;;;;;;5.25;3.38;;;7.20;47.20;;;;;;4955334;28;45498;-50
2022/12/20 04:36:16;;;;;;;4.60;3.00;;;7.20;47.20;;;;;;4956233;28;45335;-58
2022/12/20 04:38:41;;;;;;;4.03;2.90;;;7.20;47.20;;;;;;4957300;28;45241;-61
2022/12/20 04:41:07;;;;;;;4.43;3.10;;;7.20;47.10;;;;;;4952277;28;44875;-59
2022/12/20 04:43:32;;;;;;;5.05;2.92;;;7.20;47.20;;;;;;4933317;28;45383;-60
2022/12/20 04:45:58;;;;;;;4.50;3.28;;;7.30;47.20;;;;;;4955392;28;45342;-52
2022/12/20 04:48:28;;;;;;;3.92;2.60;;;7.20;47.10;;;;;;4957986;28;47295;-61
2022/12/20 04:50:54;;;;;;;4.65;2.90;;;7.20;47.20;;;;;;4955128;28;45563;-60
2022/12/20 04:56:04;;;;;;;4.97;3.30;;;7.20;47.10;;;;;;4957852;28;45603;-58
2022/12/20 04:58:29;;;;;;;4.32;2.97;;;7.20;47.10;;;;;;4958309;28;45623;-57
2022/12/20 05:00:55;;;;;;;3.38;2.55;;;7.20;47.10;;;;;;4942432;28;45452;-57
2022/12/20 05:03:21;;;;;;;5.40;3.30;;;7.20;47.10;;;;;;4953572;28;44772;-56
2022/12/20 05:05:47;;;;;;;5.15;3.45;;;7.20;47.70;;;;;;4940685;28;44951;-57
2022/12/20 05:08:13;;;;;;;4.72;3.35;;;7.20;47.10;;;;;;4953437;28;47213;-58
2022/12/20 05:10:38;;;;;;;5.22;3.45;;;7.20;47.20;;;;;;4957313;28;44837;-61
2022/12/20 05:13:04;;;;;;;5.45;3.63;;;7.20;47.10;;;;;;4956434;28;45266;-58
2022/12/20 05:15:29;;;;;;;4.93;3.40;;;7.20;47.10;;;;;;4954307;28;45442;-55
2022/12/20 05:17:58;;;;;;;5.00;3.10;;;7.30;47.10;;;;;;4938434;28;46173;-58
2022/12/20 05:20:25;;;;;;;5.82;3.42;;;7.30;47.20;;;;;;4953038;28;44600;-63
2022/12/20 05:28:21;;;;;;;5.70;3.38;;;7.20;47.10;;;;;;4940469;28;45927;-54
2022/12/20 05:30:46;;;;;;;4.75;3.15;;;7.20;47.10;;;;;;4954872;28;45432;-58
2022/12/20 05:33:12;;;;;;;4.65;3.13;;;7.20;47.10;;;;;;4957443;28;45132;-57
2022/12/20 05:35:37;;;;;;;4.68;3.22;;;7.20;47.10;;;;;;4954282;28;45272;-61
2022/12/20 05:38:03;;;;;;;5.40;3.03;;;7.20;47.10;;;;;;4954245;28;47003;-64
2022/12/20 05:40:28;;;;;;;4.30;3.05;;;7.30;47.10;;;;;;4954484;28;45128;-58
2022/12/20 05:42:54;;;;;;;5.03;3.15;;;7.20;47.10;;;;;;4957164;28;45052;-58
2022/12/20 05:45:19;;;;;;;4.38;3.13;;;7.30;47.20;;;;;;4956037;28;45421;-56
2022/12/20 05:47:45;;;;;;;5.65;3.05;;;7.20;47.10;;;;;;4951866;28;45965;-58
2022/12/20 05:50:11;;;;;;;5.30;3.25;;;7.20;47.20;;;;;;4955240;28;44709;-57
2022/12/20 05:52:36;;;;;;;5.30;3.10;;;7.20;47.10;;;;;;4952888;28;45443;-61
2022/12/20 05:55:02;;;;;;;5.63;3.30;;;7.20;47.10;;;;;;4954949;28;45499;-54
2022/12/20 05:57:27;;;;;;;5.03;3.20;;;7.20;47.10;;;;;;4958787;28;46054;-55
2022/12/20 05:59:53;;;;;;;3.72;2.63;;;7.30;47.20;;;;;;4956484;28;45574;-61
2022/12/20 06:02:19;;;;;;;5.70;3.40;;;7.20;47.10;;;;;;4953509;28;46419;-58
2022/12/20 06:04:44;;;;;;;4.68;3.08;;;7.20;47.10;;;;;;4953171;28;45577;-60
2022/12/20 06:07:10;;;;;;;4.63;3.03;;;7.30;47.10;;;;;;4955771;28;45486;-56
2022/12/20 06:09:35;;;;;;;5.25;3.20;;;7.30;47.10;;;;;;4954811;28;45270;-59
2022/12/20 06:12:01;;;;;;;4.10;2.92;;;7.30;47.10;;;;;;4954002;28;45382;-53
2022/12/20 06:14:26;;;;;;;4.20;2.80;;;7.20;47.70;;;;;;4952173;28;46841;-58
2022/12/20 06:16:52;;;;;;;5.22;3.08;;;7.30;47.20;;;;;;4954379;28;46141;-59
2022/12/20 06:19:18;;;;;;;4.97;3.30;;;7.20;47.10;;;;;;4955523;28;45593;-54
2022/12/20 06:21:43;;;;;;;5.05;2.88;;;7.20;47.20;;;;;;4932204;28;45437;-61
2022/12/20 06:24:09;;;;;;;5.60;3.25;;;7.20;47.20;;;;;;4953937;28;45190;-56
2022/12/20 06:26:35;;;;;;;4.68;3.00;;;7.20;47.20;;;;;;4952688;28;46017;-56
2022/12/20 06:29:05;;;;;;;4.70;3.42;;;7.30;47.20;;;;;;4954723;28;45338;-57
2022/12/20 06:31:34;;;;;;;4.35;3.08;;;7.20;47.20;;;;;;4952036;28;45472;-54
2022/12/20 06:34:00;;;;;;;6.20;3.25;;;7.20;47.20;;;;;;4951834;28;45153;-64
2022/12/20 06:36:25;;;;;;;4.78;3.30;;;7.30;47.20;;;;;;4954026;28;47202;-56
2022/12/20 06:38:51;;;;;;;5.13;3.30;;;7.30;47.20;;;;;;4952075;28;45107;-55
2022/12/20 06:41:17;;;;;;;4.28;3.00;;;7.30;47.20;;;;;;4950605;28;45233;-58
2022/12/20 06:43:42;;;;;;;4.72;2.75;;;7.30;47.20;;;;;;4955099;28;45570;-55
2022/12/20 06:46:08;;;;;;;6.25;3.20;;;7.30;47.10;;;;;;4943422;28;46033;-58
2022/12/20 06:48:33;;;;;;;4.75;3.25;;;7.30;47.20;;;;;;4951487;28;45520;-58
2022/12/20 06:50:59;;;;;;;4.53;2.88;;;7.30;47.20;;;;;;4949742;28;45258;-58
2022/12/20 06:53:24;;;;;;;4.43;2.97;;;7.30;47.10;;;;;;4955881;28;44905;-58
2022/12/20 06:55:50;;;;;;;4.78;3.00;;;7.30;47.20;;;;;;4948743;28;46445;-55
2022/12/20 06:58:16;;;;;;;5.15;2.80;;;7.30;47.10;;;;;;4952708;28;45607;-53
2022/12/20 07:00:42;;;;;;;4.25;2.90;;;7.30;47.20;;;;;;4944046;28;45510;-58
2022/12/20 07:03:07;;;;;;;4.75;3.20;;;7.30;47.20;;;;;;4951187;28;44975;-59
2022/12/20 07:05:33;;;;;;;4.50;2.88;;;7.30;47.20;;;;;;4951413;28;46319;-59
2022/12/20 07:07:59;;;;;;;5.07;3.03;;;7.30;47.20;;;;;;4954636;28;45048;-55
2022/12/20 07:10:24;;;;;;;3.65;2.67;;;7.30;47.10;;;;;;4944952;28;45404;-58
2022/12/20 07:12:51;;;;;;;5.50;3.42;;;7.30;47.20;;;;;;4952582;28;45282;-58
2022/12/20 07:15:17;;;;;;;5.05;3.17;;;7.30;47.20;;;;;;4954971;28;46224;-66
2022/12/20 07:17:42;;;;;;;4.50;2.88;;;7.30;47.20;;;;;;4950193;28;45176;-57
2022/12/20 07:20:09;;;;;;;5.03;3.17;;;7.30;47.20;;;;;;4955849;28;45646;-56
2022/12/20 07:22:34;;;;;;;5.05;3.50;;;7.30;47.20;;;;;;4953063;28;45389;-59
2022/12/20 07:25:00;;;;;;;5.05;3.22;;;7.20;47.20;;;;;;4954573;28;45581;-57
2022/12/20 07:27:26;;;;;;;4.93;2.92;;;7.20;47.20;;;;;;4952053;28;45403;-58
2022/12/20 07:29:51;;;;;;;5.20;2.92;;;7.30;47.30;;;;;;4952055;28;45384;-61
2022/12/20 07:32:17;;;;;;;4.45;3.03;;;7.30;47.30;;;;;;4949163;28;45251;-56
2022/12/20 07:34:42;;;;;;;4.05;2.78;;;7.20;47.20;;;;;;4948204;28;45892;-61
2022/12/20 07:37:08;;;;;;;4.55;3.20;;;7.30;47.20;;;;;;4951994;28;45411;-58
2022/12/20 07:39:33;;;;;;;5.07;3.40;;;7.30;47.20;;;;;;4939715;28;44667;-58
2022/12/20 07:41:59;;;;;;;4.60;3.00;;;7.30;47.20;;;;;;4953945;28;45515;-57
2022/12/20 07:44:24;;;;;;;5.00;3.13;;;7.30;47.20;;;;;;4951986;28;45253;-61
2022/12/20 07:46:50;;;;;;;4.60;2.95;;;7.30;47.20;;;;;;4955580;28;45599;-54
2022/12/20 07:49:15;;;;;;;4.30;2.72;;;7.30;47.20;;;;;;4952474;28;45374;-58
2022/12/20 07:51:46;;;;;;;5.03;3.08;;;7.30;47.20;;;;;;4954377;28;45421;-58
2022/12/20 07:54:18;;;;;;;5.18;2.95;;;7.30;47.20;;;;;;4969381;23;45429;-58
2022/12/20 07:56:46;;;;;;;4.93;3.55;;;7.30;47.20;;;;;;4967999;28;45554;-65
2022/12/20 07:59:12;;;;;;;4.70;3.00;;;7.30;47.20;;;;;;4988234;28;45405;-60
2022/12/20 08:01:38;;;;;;;5.07;2.95;;;7.30;47.20;;;;;;4984409;28;45424;-61
2022/12/20 08:04:07;;;;;;;3.83;2.70;;;7.30;47.30;;;;;;4994903;28;46174;-61
2022/12/20 08:06:32;;;;;;;5.20;3.30;;;7.30;47.20;;;;;;4991536;28;45246;-55
2022/12/20 08:08:59;;;;;;;4.65;3.08;;;7.30;47.20;;;;;;4990797;28;45462;-54
2022/12/20 08:11:25;;;;;;;4.10;2.97;;;7.30;47.20;;;;;;4982109;28;46545;-58
2022/12/20 08:13:50;;;;;;;4.97;2.83;;;7.30;47.30;;;;;;4996506;28;47056;-57
2022/12/20 08:16:16;;;;;;;4.45;3.00;;;7.30;47.20;;;;;;4996324;28;45372;-56
2022/12/20 08:18:41;;;;;;;4.95;3.05;;;7.30;47.30;;;;;;5011843;28;45469;-55
2022/12/20 08:21:07;;;;;;;4.68;3.20;;;7.30;47.20;;;;;;5009891;28;45540;-57
2022/12/20 08:23:33;;;;;;;4.32;2.97;;;7.30;47.30;;;;;;5012861;28;45055;-62
2022/12/20 08:26:01;;;;;;;5.43;3.05;;;7.30;47.20;;;;;;4987181;28;45118;-56
2022/12/20 08:28:27;;;;;;;4.72;3.08;;;7.30;47.20;;;;;;5012407;28;45465;-58
2022/12/20 08:30:53;;;;;;;4.30;2.78;;;7.30;47.20;;;;;;5009590;28;44970;-53
2022/12/20 08:33:18;;;;;;;5.65;3.30;;;7.30;47.20;;;;;;5011273;28;46683;-56
2022/12/20 08:35:44;;;;;;;4.95;3.17;;;7.30;47.20;;;;;;5005083;28;45682;-58
2022/12/20 08:38:09;;;;;;;3.78;2.97;;;7.30;47.10;;;;;;5005770;28;46923;-58
2022/12/20 08:40:35;;;;;;;4.30;3.00;;;7.30;47.10;;;;;;5009063;28;45491;-59
2022/12/20 08:43:00;;;;;;;3.92;2.95;;;7.30;47.10;;;;;;5012512;28;46289;-55
2022/12/20 08:45:26;;;;;;;5.50;3.15;;;7.30;47.10;;;;;;5013585;28;44964;-52
2022/12/20 08:47:52;;;;;;;4.88;3.00;;;7.30;47.20;;;;;;5010553;28;45295;-55
2022/12/20 08:50:18;;;;;;;4.85;3.00;;;7.30;47.20;;;;;;5011516;28;45366;-58
2022/12/20 08:52:43;;;;;;;4.60;3.00;;;7.30;47.20;;;;;;5006109;28;46065;-57
2022/12/20 08:55:09;;;;;;;4.03;3.03;;;7.30;47.20;;;;;;5007019;28;45286;-62
2022/12/20 08:57:34;;;;;;;5.05;2.90;;;7.30;47.20;;;;;;5013419;28;45435;-61
2022/12/20 09:00:00;;;;;;;4.57;2.95;;;7.30;47.20;;;;;;5013422;28;44836;-55
2022/12/20 09:02:26;;;;;;;6.22;3.75;;;7.30;47.20;;;;;;5013905;28;46134;-56
2022/12/20 09:04:51;;;;;;;3.63;2.63;;;7.30;47.20;;;;;;5020518;28;45313;-58
2022/12/20 09:07:19;;;;;;;5.22;3.22;;;7.30;47.10;;;;;;5009137;28;45235;-55
2022/12/20 09:09:45;;;;;;;4.15;3.00;;;7.30;47.20;;;;;;4990537;28;45417;-52
2022/12/20 09:12:11;;;;;;;4.53;2.95;;;7.30;47.20;;;;;;5009220;28;46168;-56
2022/12/20 09:14:36;;;;;;;4.38;2.90;;;7.30;47.20;;;;;;5012537;28;45082;-61
2022/12/20 09:17:02;;;;;;;5.28;3.33;;;7.30;47.10;;;;;;5010645;28;45311;-54
2022/12/20 09:19:27;;;;;;;4.95;2.85;;;7.30;47.10;;;;;;5009328;28;45370;-57
2022/12/20 09:21:54;;;;;;;4.75;3.00;;;7.30;47.20;;;;;;5007755;28;47045;-54
2022/12/20 09:24:19;;;;;;;4.68;2.65;;;7.30;47.20;;;;;;5012690;28;45151;-63
2022/12/20 09:26:45;;;;;;;4.53;3.03;;;7.30;47.20;;;;;;5016465;28;45194;-56
2022/12/20 09:29:10;;;;;;;4.38;2.90;;;7.30;47.20;;;;;;5015966;28;45279;-61
2022/12/20 09:31:36;;;;;;;4.15;2.72;;;7.30;47.20;;;;;;4997405;28;46253;-61
2022/12/20 09:34:02;;;;;;;4.45;3.10;;;7.40;47.20;;;;;;4990995;28;45160;-56
2022/12/20 09:36:28;;;;;;;3.80;2.92;;;7.40;47.20;;;;;;5010751;28;45223;-57
2022/12/20 09:38:53;;;;;;;4.15;2.97;;;7.40;47.20;;;;;;5013548;28;45665;-59
2022/12/20 09:41:22;;;;;;;4.57;3.15;;;7.40;47.20;;;;;;5011821;28;46085;-59
2022/12/20 09:43:48;;;;;;;5.55;3.00;;;7.40;47.20;;;;;;5013015;28;45479;-56
2022/12/20 09:46:14;;;;;;;5.50;2.90;;;7.40;47.20;;;;;;5009762;28;45441;-53
2022/12/20 09:48:39;;;;;;;4.43;3.22;;;7.30;47.20;;;;;;5009603;28;44725;-58
2022/12/20 09:51:12;;;;;;;6.40;3.47;;;7.40;47.20;;;;;;5007268;28;46449;-58
2022/12/20 09:53:56;;;;;;;;;;;7.40;47.20;;;;;;5005495;28;45587;-51
2022/12/20 09:56:36;;;;;;;3.78;2.60;;;7.40;47.20;;;;;;4990524;28;45282;-55
2022/12/20 09:59:12;;;;;;;4.57;3.05;;;7.40;47.30;;;;;;4960253;28;45763;-60
2022/12/20 10:01:38;;;;;;;4.50;2.70;;;7.40;47.30;;;;;;4989117;28;46368;-62
2022/12/20 10:04:32;;;;;;;4.70;3.20;;;7.40;47.30;;;;;;4952998;28;45115;-59
2022/12/20 10:07:16;;;;;;;3.75;2.53;;;7.40;47.20;;;;;;4970819;28;45614;-55
2022/12/20 10:09:52;;;;;;;4.00;2.72;;;7.40;47.30;;;;;;4988007;28;45219;-61
2022/12/20 10:12:52;;;;;;;5.43;3.08;;;7.40;47.30;;;;;;4974134;28;45537;-52
2022/12/20 10:15:32;;;;;;;5.00;2.85;;;7.40;47.30;;;;;;4969540;28;45483;-57
2022/12/20 10:18:22;;;;;;;4.75;2.60;;;7.40;47.30;;;;;;4971534;28;45432;-58
2022/12/20 10:21:07;;;;;;;4.43;3.38;;;7.40;47.20;;;;;;4987610;28;45052;-61
2022/12/20 10:23:41;;;;;;;4.80;2.85;;;7.40;47.30;;;;;;4972039;28;45524;-60
2022/12/20 10:26:11;;;;;;;3.97;2.67;;;7.40;47.30;;;;;;4979184;28;45457;-54
2022/12/20 10:28:37;;;;;;;3.13;2.33;;;7.40;47.30;;;;;;4972615;28;44946;-58
2022/12/20 10:31:05;;;;;;;3.80;3.10;;;7.30;47.30;;;;;;4972916;28;45704;-59
2022/12/20 10:33:31;;;;;;;4.63;2.90;;;7.40;47.30;;;;;;4975241;28;47195;-56
2022/12/20 10:36:17;;;;;;;5.70;3.08;;;7.40;47.30;;;;;;4992395;28;44972;-52
2022/12/20 10:38:47;;;;;;;3.78;2.85;;;7.40;47.30;;;;;;4987041;28;45177;-58
2022/12/20 10:41:27;;;;;;;5.13;3.10;;;7.40;47.30;;;;;;4986377;28;45004;-62
2022/12/20 10:44:01;;;;;;;3.88;2.78;;;7.40;47.30;;;;;;4972158;28;46042;-60
2022/12/20 10:46:37;;;;;;;4.85;3.10;;;7.40;47.30;;;;;;4980982;28;45457;-55
2022/12/20 10:49:34;;;;;;;4.35;3.10;;;7.40;47.40;;;;;;4971998;28;45283;-57
2022/12/20 10:52:06;;;;;;;4.70;3.10;;;7.40;47.30;;;;;;4979175;28;45988;-60
2022/12/20 10:54:39;;;;;;;5.93;3.10;;;7.40;47.30;;;;;;4997045;28;45613;-59
2022/12/20 10:57:23;;;;;;;4.35;2.88;;;7.40;47.40;;;;;;5006830;28;44944;-59
2022/12/20 10:59:51;;;;;;;3.95;2.67;;;7.40;47.40;;;;;;5004971;28;45692;-57
2022/12/20 11:02:26;;;;;;;3.88;2.80;;;7.40;47.30;;;;;;5010817;28;45372;-56
2022/12/20 11:05:00;;;;;;;4.07;2.92;;;7.40;47.30;;;;;;5004171;28;46100;-73
2022/12/20 11:07:28;;;;;;;4.40;2.72;;;7.40;47.20;;;;;;5004809;28;45565;-59
2022/12/20 11:09:55;;;;;;;4.38;2.70;;;7.40;47.20;;;;;;5004558;28;45131;-61
2022/12/20 11:12:21;;;;;;;4.78;3.30;;;7.40;47.30;;;;;;5003701;28;45372;-57
2022/12/20 11:14:48;;;;;;;4.45;3.15;;;7.40;47.30;;;;;;5008894;28;46027;-54
2022/12/20 11:17:13;;;;;;;4.60;3.15;;;7.40;47.30;;;;;;5003991;28;45131;-60
2022/12/20 11:19:55;;;;;;;5.40;3.28;;;7.40;47.30;;;;;;5005274;28;45424;-61
2022/12/20 11:22:31;;;;;;;4.22;2.75;;;7.40;47.30;;;;;;5007472;28;45783;-57
2022/12/20 11:25:19;;;;;;;4.82;2.45;;;7.40;47.30;;;;;;5006901;28;46981;-58
2022/12/20 11:28:33;;;;;;;4.78;3.20;;;7.40;47.30;;;;;;5008138;28;45332;-56
2022/12/20 11:31:21;;;;;;;5.88;2.80;;;7.50;47.30;;;;;;4975849;28;45271;-58
2022/12/20 11:34:10;;;;;;;4.60;2.92;;;7.40;47.40;;;;;;5001728;28;45504;-56
2022/12/20 11:36:51;;;;;;;3.60;2.60;;;7.40;47.40;;;;;;4997589;28;46388;-56
2022/12/20 11:39:31;;;;;;;4.28;2.92;;;7.50;47.40;;;;;;5009542;28;45669;-63
2022/12/20 11:42:40;;;;;;;4.40;2.60;;;7.50;47.40;;;;;;5003398;28;45228;-55
2022/12/20 11:45:13;;;;;;;3.63;2.60;;;7.50;47.40;;;;;;4932584;28;45227;-62
2022/12/20 11:47:48;;;;;;;4.15;2.47;;;7.50;47.40;;;;;;4998134;28;46230;-73
2022/12/20 11:50:41;;;;;;;4.50;2.70;;;7.50;47.40;;;;;;5003046;28;45613;-60
2022/12/20 11:53:17;;;;;;;4.70;3.20;;;7.50;47.40;;;;;;4970378;28;45256;-61
2022/12/20 11:55:44;;;;;;;4.03;2.75;;;7.50;47.40;;;;;;5009913;28;45114;-56
2022/12/20 11:58:27;;;;;;;4.97;3.10;;;7.50;47.30;;;;;;5010021;28;45907;-61
2022/12/20 12:01:00;;;;;;;5.05;2.92;;;7.50;47.40;;;;;;5007752;28;45265;-54
2022/12/20 12:03:36;;;;;;;4.18;2.92;;;7.50;47.40;;;;;;4997753;28;45582;-65
2022/12/20 12:06:38;;;;;;;4.60;2.70;;;7.50;47.40;;;;;;4995618;28;45468;-56
2022/12/20 12:09:15;;;;;;;3.63;2.60;;;7.50;47.40;;;;;;4964379;28;46030;-54
2022/12/20 12:11:50;;;;;;;4.45;2.70;;;7.50;47.40;;;;;;5006062;28;45187;-62
2022/12/20 12:14:37;;;;;;;4.63;3.05;;;7.50;47.40;;;;;;5007160;28;46229;-56
2022/12/20 12:17:13;;;;;;;4.13;2.53;;;7.50;47.40;;;;;;5008414;28;45084;-55
2022/12/20 12:19:40;;;;;;;5.10;3.17;;;7.50;47.40;;;;;;5008106;28;46157;-54
2022/12/20 12:22:11;;;;;;;5.18;3.17;;;7.50;47.40;;;;;;5011327;28;45275;-59
2022/12/20 12:24:41;;;;;;;4.20;2.70;;;7.50;47.40;;;;;;5012519;28;45123;-58
2022/12/20 12:27:10;;;;;;;4.40;2.78;;;7.50;47.40;;;;;;5014736;28;45845;-59
2022/12/20 12:29:35;;;;;;;3.33;2.50;;;7.50;47.40;;;;;;4994478;28;46241;-58
2022/12/20 12:32:29;;;;;;;3.35;2.40;;;7.50;47.40;;;;;;5005622;28;45334;-55
2022/12/20 12:35:07;;;;;;;3.90;2.70;;;7.50;47.40;;;;;;4992843;28;45585;-59
2022/12/20 12:37:36;;;;;;;3.80;2.60;;;7.50;47.30;;;;;;5013500;28;45176;-55
2022/12/20 12:40:20;;;;;;;3.85;2.85;;;7.50;47.30;;;;;;5012256;28;46556;-55
2022/12/20 12:43:01;;;;;;;3.38;2.47;;;7.50;47.30;;;;;;5012908;28;45341;-56
2022/12/20 12:45:33;;;;;;;5.88;3.15;;;7.60;47.30;;;;;;5012738;28;45297;-55
2022/12/20 12:48:28;;;;;;;3.75;2.65;;;7.60;47.30;;;;;;5004765;28;45207;-56
2022/12/20 12:50:55;;;;;;;4.15;2.85;;;7.60;47.30;;;;;;5007988;28;46234;-56
2022/12/20 12:53:37;;;;;;;5.05;3.13;;;7.50;47.30;;;;;;5021893;28;45498;-52
2022/12/20 12:56:24;;;;;;;3.42;2.35;;;7.60;47.40;;;;;;5012159;28;45388;-69
2022/12/20 12:59:05;;;;;;;4.25;2.88;;;7.60;47.40;;;;;;5012738;28;44736;-60
2022/12/20 13:01:45;;;;;;;4.47;2.85;;;7.60;47.40;;;;;;5010179;28;46858;-57
2022/12/20 13:04:18;;;;;;;4.10;2.78;;;7.60;47.40;;;;;;5010067;28;45230;-62
2022/12/20 13:06:54;;;;;;;4.75;2.70;;;7.60;47.40;;;;;;5008571;28;45773;-60
2022/12/20 13:09:25;;;;;;;4.05;2.67;;;7.60;47.40;;;;;;5010150;28;45288;-63
2022/12/20 13:11:55;;;;;;;4.43;2.60;;;7.60;47.40;;;;;;5008106;28;46166;-57
2022/12/20 13:14:23;;;;;;;4.00;2.55;;;7.60;47.40;;;;;;5012927;28;44745;-54
2022/12/20 13:16:50;;;;;;;4.95;3.15;;;7.60;47.30;;;;;;5011333;28;45143;-57
2022/12/20 13:19:24;;;;;;;4.18;2.80;;;7.60;47.30;;;;;;5007159;28;46218;-62
2022/12/20 13:21:57;;;;;;;4.22;2.67;;;7.60;47.30;;;;;;5004852;28;47341;-56
2022/12/20 13:24:45;;;;;;;4.47;3.05;;;7.60;47.30;;;;;;5011344;28;45486;-57
2022/12/20 13:27:22;;;;;;;5.22;2.72;;;7.60;47.40;;;;;;5006340;28;45652;-64
2022/12/20 13:30:09;;;;;;;4.63;2.67;;;7.60;47.30;;;;;;5005693;28;45392;-56
2022/12/20 13:32:46;;;;;;;4.15;2.55;;;7.60;47.30;;;;;;5012683;28;45131;-58
2022/12/20 13:35:24;;;;;;;4.95;3.05;;;7.60;47.40;;;;;;5008196;28;45293;-54
2022/12/20 13:37:51;;;;;;;3.90;2.65;;;7.60;47.40;;;;;;5012871;28;45650;-57
2022/12/20 13:40:48;;;;;;;3.72;2.85;;;7.60;47.30;;;;;;5009364;28;45270;-58
2022/12/20 13:43:23;;;;;;;4.00;2.63;;;7.60;47.30;;;;;;5010816;28;46079;-54
2022/12/20 13:46:17;;;;;;;3.83;2.80;;;7.60;47.30;;;;;;5016205;28;45491;-55
2022/12/20 13:48:45;;;;;;;4.72;2.83;;;7.60;47.60;;;;;;5013314;28;45085;-52
2022/12/20 13:51:18;;;;;;;3.88;2.50;;;7.60;47.30;;;;;;5011923;28;45187;-58
2022/12/20 13:53:56;;;;;;;4.82;3.13;;;7.60;47.90;;;;;;5011048;28;46221;-54
2022/12/20 13:56:31;;;;;;;3.83;2.42;;;7.60;47.40;;;;;;4977159;28;45572;-62
2022/12/20 13:58:58;;;;;;;3.67;2.65;;;7.60;47.30;;;;;;4992894;28;45040;-58
2022/12/20 14:01:23;;;;;;;4.30;3.00;;;7.60;47.30;;;;;;4991681;28;45005;-69
2022/12/20 14:03:49;;;;;;;3.67;2.33;;;7.60;47.30;;;;;;4957090;28;47472;-55
2022/12/20 14:06:16;;;;;;;3.75;2.60;;;7.60;47.30;;;;;;4976402;28;45282;-56
2022/12/20 14:08:47;;;;;;;4.63;2.72;;;7.60;47.40;;;;;;4984102;28;44689;-55
2022/12/20 14:11:17;;;;;;;4.05;2.85;;;7.60;47.30;;;;;;4988937;28;45271;-58
2022/12/20 14:13:54;;;;;;;4.28;3.03;;;7.60;47.40;;;;;;4994334;28;46112;-56
2022/12/20 14:16:19;;;;;;;4.68;3.10;;;7.60;47.40;;;;;;4988963;28;44719;-54
2022/12/20 14:19:04;;;;;;;3.90;2.47;;;7.60;47.40;;;;;;4996868;28;44780;-58
2022/12/20 14:21:30;;;;;;;4.30;2.65;;;7.60;47.40;;;;;;4985663;28;45532;-59
2022/12/20 14:23:57;;;;;;;3.20;2.17;;;7.60;47.40;;;;;;4992349;28;46866;-56
2022/12/20 14:26:40;;;;;;;3.70;2.45;;;7.60;47.40;;;;;;4977482;28;45554;-58
2022/12/20 14:29:09;;;;;;;4.63;2.80;;;7.60;47.40;;;;;;4974299;28;45635;-59
2022/12/20 14:31:40;;;;;;;3.53;2.47;;;7.60;47.40;;;;;;4990869;28;44825;-57
2022/12/20 14:34:20;;;;;;;3.90;2.53;;;7.60;47.40;;;;;;4972235;28;46310;-61
2022/12/20 14:36:46;;;;;;;3.53;2.30;;;7.60;47.40;;;;;;4961400;28;45244;-59
2022/12/20 14:39:28;;;;;;;4.88;2.88;;;7.60;47.40;;;;;;4978632;28;45228;-58
2022/12/20 14:41:57;;;;;;;4.45;2.78;;;7.60;47.40;;;;;;4973239;28;45379;-53
2022/12/20 14:44:24;;;;;;;3.95;2.85;;;7.60;47.40;;;;;;4995673;28;45967;-55
2022/12/20 14:46:51;;;;;;;5.15;3.13;;;7.60;47.40;;;;;;4991680;28;45303;-62
2022/12/20 14:49:30;;;;;;;3.60;2.60;;;7.60;47.40;;;;;;4972664;28;45413;-58
2022/12/20 14:52:09;;;;;;;5.72;2.50;;;7.60;47.40;;;;;;4974628;28;45266;-61
2022/12/20 14:54:35;;;;;;;3.05;2.15;;;7.60;47.40;;;;;;4991561;28;46267;-60
2022/12/20 14:57:00;;;;;;;3.38;2.33;;;7.60;47.40;;;;;;4958368;28;44885;-56
2022/12/20 14:59:30;;;;;;;4.35;2.67;;;7.60;47.40;;;;;;4993382;28;45377;-56
2022/12/20 15:01:56;;;;;;;4.57;2.53;;;7.60;47.40;;;;;;4993167;28;45350;-58
2022/12/20 15:04:23;;;;;;;3.78;2.55;;;7.60;47.40;;;;;;4973416;28;46203;-63
2022/12/20 15:06:48;;;;;;;3.67;2.70;;;7.60;47.40;;;;;;4990833;28;45403;-60
2022/12/20 15:09:15;;;;;;;3.60;2.40;;;7.60;47.50;;;;;;4974153;28;44928;-59
2022/12/20 15:11:41;;;;;;;5.00;2.97;;;7.60;47.50;;;;;;4990383;28;44934;-55
2022/12/20 15:14:33;;;;;;;3.45;2.60;;;7.60;47.40;;;;;;4977136;28;46230;-59
2022/12/20 15:16:59;;;;;;;5.00;2.95;;;7.60;47.40;;;;;;4989448;28;45739;-59
2022/12/20 15:19:25;;;;;;;3.53;2.70;;;7.60;47.40;;;;;;4974607;28;45593;-59
2022/12/20 15:21:52;;;;;;;3.42;2.55;;;7.60;47.40;;;;;;4993297;28;45001;-59
2022/12/20 15:24:20;;;;;;;3.92;2.53;;;7.60;47.40;;;;;;4973719;28;45692;-63
2022/12/20 15:26:46;;;;;;;3.92;2.67;;;7.60;47.40;;;;;;4989137;28;45254;-53
2022/12/20 15:29:26;;;;;;;3.72;2.30;;;7.60;47.50;;;;;;4973567;28;45266;-60
2022/12/20 15:31:57;;;;;;;3.85;2.60;;;7.60;47.40;;;;;;4988116;28;45646;-57
2022/12/20 15:34:23;;;;;;;4.07;2.78;;;7.60;47.40;;;;;;4960693;28;45227;-54
2022/12/20 15:36:48;;;;;;;4.38;2.60;;;7.60;47.40;;;;;;4996222;28;45203;-62
2022/12/20 15:39:14;;;;;;;4.07;2.45;;;7.60;47.40;;;;;;4975847;28;45212;-62
2022/12/20 15:41:42;;;;;;;3.47;2.60;;;7.60;47.40;;;;;;4990175;28;45222;-54
2022/12/20 15:44:21;;;;;;;4.43;2.80;;;7.60;47.40;;;;;;4974847;28;46179;-53
2022/12/20 15:46:47;;;;;;;4.93;2.53;;;7.70;47.50;;;;;;4994038;28;45128;-52
2022/12/20 15:49:26;;;;;;;3.20;2.30;;;7.60;47.40;;;;;;4987591;28;44583;-52
2022/12/20 15:51:52;;;;;;;4.05;2.90;;;7.60;47.50;;;;;;4977550;28;47041;-56
2022/12/20 15:54:28;;;;;;;4.32;2.60;;;7.60;47.40;;;;;;4992017;28;45858;-50
2022/12/20 15:56:58;;;;;;;3.88;2.40;;;7.60;47.40;;;;;;4995661;28;44664;-52
2022/12/20 15:59:23;;;;;;;3.75;2.40;;;7.60;47.40;;;;;;4993242;28;45107;-55
2022/12/20 16:01:49;;;;;;;3.78;2.45;;;7.60;47.50;;;;;;4961842;28;46129;-58
2022/12/20 16:04:16;;;;;;;3.45;2.55;;;7.70;47.50;;;;;;4991016;28;46199;-56
2022/12/20 16:06:43;;;;;;;3.38;2.10;;;7.60;47.50;;;;;;4972396;28;45443;-51
2022/12/20 16:09:08;;;;;;;3.65;2.22;;;7.60;47.40;;;;;;4994321;28;45343;-58
2022/12/20 16:11:34;;;;;;;2.67;2.03;;;7.60;47.40;;;;;;4991201;28;45602;-58
2022/12/20 16:14:00;;;;;;;3.25;2.30;;;7.70;47.50;;;;;;4994628;28;46127;-54
2022/12/20 16:16:27;;;;;;;3.78;2.55;;;7.70;47.50;;;;;;4978697;28;45162;-65
2022/12/20 16:18:53;;;;;;;4.32;2.70;;;7.60;47.40;;;;;;4990840;28;44641;-56
2022/12/20 16:21:20;;;;;;;4.13;2.95;;;7.70;47.50;;;;;;4990423;28;44977;-61
2022/12/20 16:23:46;;;;;;;3.47;2.40;;;7.60;47.40;;;;;;4996000;28;45488;-57
2022/12/20 16:26:13;;;;;;;3.78;2.60;;;7.60;47.40;;;;;;4993360;28;45524;-57
2022/12/20 16:28:38;;;;;;;3.67;2.33;;;7.60;47.50;;;;;;4997188;28;44750;-54
2022/12/20 16:31:32;;;;;;;3.85;2.50;;;7.70;47.50;;;;;;4990445;28;45345;-65
2022/12/20 16:34:02;;;;;;;3.55;2.42;;;7.70;47.50;;;;;;4993641;28;46080;-53
2022/12/20 16:36:28;;;;;;;2.70;1.98;;;7.70;47.50;;;;;;4990486;28;45302;-52
2022/12/20 16:38:53;;;;;;;4.00;2.90;;;7.60;47.40;;;;;;4993167;28;45337;-58
2022/12/20 16:41:26;;;;;;;3.65;2.50;;;7.60;47.50;;;;;;4985246;28;45734;-67
2022/12/20 16:43:55;;;;;;;3.95;2.83;;;7.60;47.50;;;;;;4953372;28;45810;-64
2022/12/20 16:46:22;;;;;;;4.22;2.58;;;7.60;47.50;;;;;;4987178;28;45416;-61
2022/12/20 16:48:48;;;;;;;3.40;2.42;;;7.70;47.50;;;;;;4990414;28;45636;-59
2022/12/20 16:51:24;;;;;;;3.83;2.60;;;7.60;47.50;;;;;;4989649;28;45487;-59
2022/12/20 16:53:54;;;;;;;4.25;2.63;;;7.60;47.50;;;;;;4985673;28;45353;-58
2022/12/20 16:56:19;;;;;;;3.78;2.50;;;7.60;47.50;;;;;;4988346;28;45315;-60
2022/12/20 16:58:45;;;;;;;3.78;2.25;;;7.70;47.50;;;;;;4994041;28;45009;-50
2022/12/20 17:01:17;;;;;;;3.33;2.25;;;7.60;47.50;;;;;;4985941;28;45433;-58
2022/12/20 17:03:46;;;;;;;4.87;2.50;;;7.60;47.50;;;;;;4984772;28;46155;-57
2022/12/20 17:06:12;;;;;;;3.20;2.25;;;7.60;47.50;;;;;;4987973;28;45619;-66
2022/12/20 17:08:38;;;;;;;3.40;2.28;;;7.60;47.50;;;;;;4992807;28;45020;-58
2022/12/20 17:11:26;;;;;;;7.30;2.50;;;7.60;48.10;;;;;;4988887;28;44855;-70
2022/12/20 17:13:53;;;;;;;3.55;2.50;;;7.60;47.50;;;;;;4988001;28;46621;-56
2022/12/20 17:16:19;;;;;;;3.22;2.20;;;7.70;47.50;;;;;;4979086;28;44658;-57
2022/12/20 17:18:46;;;;;;;4.13;2.42;;;7.70;47.60;;;;;;4979879;28;45321;-56
2022/12/20 17:21:18;;;;;;;4.82;2.85;;;7.60;47.50;;;;;;4989560;28;45241;-60
2022/12/20 17:23:43;;;;;;;3.03;2.30;;;7.60;47.50;;;;;;4994508;28;46068;-55